Terminal Aerodrome Forecast
Issued by NWS

Home | Current Version | Previous Version | Text Only | Print | Product List | Glossary On
Versions: 1 2 3 4 5 6 7 8 9 10 11 12
748
FTUS46 KSTO 242324
TAFRDD
TAF
KRDD 242324Z 2500/2524 18013KT P6SM SCT250
     FM250200 20012G18KT P6SM SCT250
     FM250500 22009KT P6SM SKC=

USA.gov is the U.S. government's official web portal to all federal, state and local government web resources and services.